Time;durP1;ratioP1;P1;durP2;ratioP2;P2;SDS_P1;SDS_P2;PMS_P1;PMS_P2;Temp;Humidity;BMP_temperature;BMP_pressure;BME280_temperature;BME280_humidity;BME280_pressure;Samples;Min_cycle;Max_cycle;Signal;HPM_P1;HPM_P2
2021/11/16 00:00:05;;;;;;;35.53;19.30;;;6.90;99.90;;;;;;5014896;28;20102;-66
2021/11/16 00:02:30;;;;;;;36.00;20.67;;;6.70;99.90;;;;;;5013559;28;20045;-67
2021/11/16 00:04:56;;;;;;;34.50;19.38;;;6.70;99.90;;;;;;5013818;28;20057;-67
2021/11/16 00:07:23;;;;;;;36.67;19.75;;;6.80;99.90;;;;;;5014595;28;20030;-66
2021/11/16 00:09:49;;;;;;;34.05;19.90;;;6.60;99.90;;;;;;5014550;28;20018;-68
2021/11/16 00:12:14;;;;;;;32.55;18.55;;;6.50;99.90;;;;;;5014573;28;20122;-68
2021/11/16 00:14:41;;;;;;;33.63;19.48;;;6.60;99.90;;;;;;5013780;28;20092;-68
2021/11/16 00:17:07;;;;;;;35.15;18.65;;;6.70;99.90;;;;;;5075857;22;20037;-63
2021/11/16 00:19:33;;;;;;;35.92;19.25;;;6.70;99.90;;;;;;5069747;28;20025;-64
2021/11/16 00:21:59;;;;;;;33.92;19.23;;;6.60;99.90;;;;;;5073539;28;20033;-63
2021/11/16 00:24:37;;;;;;;30.48;17.98;;;6.60;99.90;;;;;;5073422;28;20542;-63
2021/11/16 00:27:05;;;;;;;31.77;18.65;;;6.70;99.90;;;;;;5073986;28;20391;-62
2021/11/16 00:29:32;;;;;;;35.28;18.95;;;6.60;99.90;;;;;;5073529;28;20044;-63
2021/11/16 00:31:57;;;;;;;37.88;19.50;;;6.70;99.90;;;;;;5073400;28;20580;-64
2021/11/16 00:34:23;;;;;;;34.35;19.38;;;6.60;99.90;;;;;;5072938;28;20111;-64
2021/11/16 00:36:49;;;;;;;31.17;18.15;;;6.60;99.90;;;;;;5073303;28;20103;-62
2021/11/16 00:39:14;;;;;;;33.13;17.95;;;6.50;99.90;;;;;;5073183;28;20163;-62
2021/11/16 00:41:42;;;;;;;38.83;20.80;;;6.60;99.90;;;;;;5073181;28;20021;-63
2021/11/16 00:44:08;;;;;;;33.83;19.15;;;6.70;99.90;;;;;;5072361;28;20138;-63
2021/11/16 00:46:34;;;;;;;35.33;19.48;;;6.60;99.90;;;;;;5061713;28;20112;-63
2021/11/16 00:48:59;;;;;;;35.50;19.08;;;7.00;99.90;;;;;;5052390;28;20033;-63
2021/11/16 00:51:25;;;;;;;38.55;19.65;;;6.50;99.90;;;;;;5052193;28;20028;-62
2021/11/16 00:53:51;;;;;;;35.13;20.08;;;6.70;99.90;;;;;;5052021;28;20493;-63
2021/11/16 00:56:16;;;;;;;36.05;19.75;;;6.60;99.90;;;;;;5050330;28;20047;-62
2021/11/16 00:58:42;;;;;;;33.30;19.55;;;6.60;99.90;;;;;;5052354;28;20021;-63
2021/11/16 01:01:08;;;;;;;33.50;19.38;;;6.60;99.90;;;;;;5051568;28;20024;-61
2021/11/16 01:03:34;;;;;;;33.88;19.75;;;6.60;99.90;;;;;;5051689;28;20098;-61
2021/11/16 01:06:00;;;;;;;33.63;20.05;;;6.70;99.90;;;;;;5049596;28;20033;-61
2021/11/16 01:08:26;;;;;;;37.90;19.60;;;6.60;99.90;;;;;;5051593;28;20491;-61
2021/11/16 01:10:53;;;;;;;34.88;19.73;;;6.60;99.90;;;;;;5051484;28;20037;-61
2021/11/16 01:13:20;;;;;;;29.42;17.05;;;6.90;99.90;;;;;;5051403;28;20479;-63
2021/11/16 01:15:48;;;;;;;32.55;18.45;;;6.70;99.90;;;;;;5050213;28;20410;-63
2021/11/16 01:18:15;;;;;;;30.83;17.15;;;6.50;99.90;;;;;;5051061;28;20021;-61
2021/11/16 01:20:41;;;;;;;32.85;17.55;;;6.50;99.90;;;;;;5051446;28;20074;-64
2021/11/16 01:23:11;;;;;;;26.75;16.65;;;6.50;99.90;;;;;;5051671;28;20082;-62
2021/11/16 01:25:38;;;;;;;32.72;17.63;;;6.60;99.90;;;;;;5050842;28;20028;-63
2021/11/16 01:28:11;;;;;;;29.58;17.38;;;6.60;99.90;;;;;;5051133;28;20503;-63
2021/11/16 01:30:44;;;;;;;28.27;17.45;;;6.50;99.90;;;;;;5051158;28;20036;-62
2021/11/16 01:33:21;;;;;;;28.55;17.00;;;6.30;99.90;;;;;;5051016;28;20474;-63
2021/11/16 01:35:48;;;;;;;29.33;17.52;;;6.40;99.90;;;;;;5050435;28;20024;-63
2021/11/16 01:38:16;;;;;;;27.77;16.40;;;6.10;99.90;;;;;;5051110;28;20025;-61
2021/11/16 01:40:43;;;;;;;28.27;16.40;;;6.30;99.90;;;;;;5051257;28;20027;-62
2021/11/16 01:43:09;;;;;;;29.00;16.90;;;6.60;99.90;;;;;;5051217;28;20075;-61
2021/11/16 01:45:37;;;;;;;29.98;16.63;;;6.50;99.90;;;;;;5050056;28;20036;-62
2021/11/16 01:48:03;;;;;;;27.15;16.33;;;6.40;99.90;;;;;;5050874;28;20040;-62
2021/11/16 01:50:29;;;;;;;26.25;16.30;;;6.50;99.90;;;;;;5050975;28;20033;-61
2021/11/16 01:52:55;;;;;;;29.92;15.82;;;6.70;99.90;;;;;;5050793;28;20091;-63
2021/11/16 01:55:23;;;;;;;28.17;16.50;;;6.50;99.90;;;;;;5050146;28;20025;-63
2021/11/16 01:57:50;;;;;;;27.63;16.08;;;6.50;99.90;;;;;;5050692;28;20033;-60
2021/11/16 02:00:26;;;;;;;25.48;15.32;;;6.40;99.90;;;;;;5050712;28;20029;-62
2021/11/16 02:02:52;;;;;;;26.45;15.30;;;6.40;99.90;;;;;;5050745;28;20031;-62
2021/11/16 02:05:18;;;;;;;26.60;15.85;;;6.40;99.90;;;;;;5050167;28;20028;-60
2021/11/16 02:07:47;;;;;;;24.52;15.20;;;6.50;99.90;;;;;;5050792;28;20455;-63
2021/11/16 02:10:14;;;;;;;22.85;14.90;;;6.40;99.90;;;;;;5050514;28;20074;-61
2021/11/16 02:12:40;;;;;;;24.30;14.73;;;6.40;99.90;;;;;;5049527;28;20032;-63
2021/11/16 02:15:10;;;;;;;25.60;14.70;;;6.50;99.90;;;;;;5049059;28;20355;-62
2021/11/16 02:17:37;;;;;;;21.70;14.05;;;6.50;99.90;;;;;;5051110;28;20037;-63
2021/11/16 02:20:05;;;;;;;24.20;15.30;;;6.40;99.90;;;;;;5060897;28;20382;-62
2021/11/16 02:22:32;;;;;;;25.13;14.07;;;6.40;99.90;;;;;;5055296;28;20493;-63
2021/11/16 02:24:58;;;;;;;25.88;15.15;;;6.40;99.90;;;;;;5050560;28;20044;-63
2021/11/16 02:27:24;;;;;;;23.90;14.43;;;6.10;99.90;;;;;;5051475;28;20025;-60
2021/11/16 02:29:49;;;;;;;22.75;14.43;;;6.50;99.90;;;;;;5051244;28;20029;-62
2021/11/16 02:32:16;;;;;;;27.13;15.52;;;6.40;99.90;;;;;;5050914;28;20075;-61
2021/11/16 02:34:41;;;;;;;26.30;14.63;;;6.40;99.90;;;;;;5050100;28;20029;-62
2021/11/16 02:37:07;;;;;;;23.05;14.70;;;6.20;99.90;;;;;;5050104;28;20014;-62
2021/11/16 02:39:34;;;;;;;21.92;14.05;;;6.30;99.90;;;;;;5050313;28;20055;-63
2021/11/16 02:42:01;;;;;;;22.33;14.27;;;6.30;99.90;;;;;;5050385;28;20064;-62
2021/11/16 02:44:27;;;;;;;23.00;14.27;;;6.50;99.90;;;;;;5049876;28;20082;-63
2021/11/16 02:46:53;;;;;;;21.55;14.23;;;6.30;99.90;;;;;;5050016;28;20079;-61
2021/11/16 02:49:20;;;;;;;21.13;13.25;;;6.20;99.90;;;;;;5049023;28;20394;-61
2021/11/16 02:51:45;;;;;;;22.77;13.57;;;6.30;99.90;;;;;;5050216;28;20565;-61
2021/11/16 02:54:13;;;;;;;20.30;13.88;;;6.30;99.90;;;;;;5050135;28;20057;-63
2021/11/16 02:56:40;;;;;;;20.83;12.73;;;6.40;99.90;;;;;;5049918;28;20029;-62
2021/11/16 02:59:05;;;;;;;18.05;11.82;;;6.30;99.90;;;;;;5049693;28;20021;-63
2021/11/16 03:01:31;;;;;;;22.67;13.27;;;6.30;99.90;;;;;;5050933;28;20031;-62
2021/11/16 03:03:57;;;;;;;19.42;12.82;;;6.20;99.90;;;;;;5051086;28;20083;-62
2021/11/16 03:06:23;;;;;;;17.55;12.02;;;6.20;99.90;;;;;;5051111;28;20075;-61
2021/11/16 03:08:48;;;;;;;17.27;12.15;;;6.30;99.90;;;;;;5054378;28;20076;-63
2021/11/16 03:11:16;;;;;;;19.60;12.80;;;6.40;99.90;;;;;;5055460;28;20025;-63
2021/11/16 03:13:42;;;;;;;21.30;13.32;;;6.30;99.90;;;;;;5054996;28;20021;-63
2021/11/16 03:16:14;;;;;;;20.63;13.93;;;6.70;99.90;;;;;;5053564;28;20028;-63
2021/11/16 03:18:40;;;;;;;22.65;13.05;;;6.50;99.90;;;;;;5054748;28;20048;-61
2021/11/16 03:21:07;;;;;;;19.05;13.23;;;6.30;99.90;;;;;;5054314;28;20495;-60
2021/11/16 03:23:33;;;;;;;23.38;13.70;;;5.90;99.90;;;;;;5054753;28;20028;-62
2021/11/16 03:26:02;;;;;;;21.17;12.90;;;6.30;99.90;;;;;;5053707;28;20487;-62
2021/11/16 03:28:31;;;;;;;19.08;13.10;;;6.30;99.90;;;;;;5054148;28;20083;-63
2021/11/16 03:31:09;;;;;;;22.17;12.82;;;6.10;99.90;;;;;;5054115;28;20024;-62
2021/11/16 03:33:37;;;;;;;20.70;13.93;;;6.30;99.90;;;;;;5054229;28;20541;-63
2021/11/16 03:36:04;;;;;;;24.25;13.93;;;6.40;99.90;;;;;;5053457;28;20037;-61
2021/11/16 03:38:31;;;;;;;24.17;14.43;;;6.40;99.90;;;;;;5054279;28;20031;-62
2021/11/16 03:40:57;;;;;;;22.20;13.70;;;6.30;99.90;;;;;;5054055;28;20075;-62
2021/11/16 03:43:23;;;;;;;22.35;14.25;;;6.30;99.90;;;;;;5053258;28;20025;-62
2021/11/16 03:45:50;;;;;;;22.92;14.85;;;6.40;99.90;;;;;;5053149;28;20029;-62
2021/11/16 03:48:17;;;;;;;23.10;14.60;;;6.30;99.90;;;;;;5053923;28;20032;-62
2021/11/16 03:50:43;;;;;;;23.05;14.55;;;6.30;99.90;;;;;;5054142;28;20399;-62
2021/11/16 03:53:10;;;;;;;19.75;13.75;;;6.00;99.90;;;;;;5053909;28;20021;-60
2021/11/16 03:55:38;;;;;;;22.92;14.80;;;6.60;99.90;;;;;;5053220;28;20487;-62
2021/11/16 03:58:05;;;;;;;22.25;14.07;;;6.40;99.90;;;;;;5053871;28;20033;-62
2021/11/16 04:00:39;;;;;;;25.13;15.10;;;6.30;99.90;;;;;;5052500;28;20074;-62
2021/11/16 04:03:05;;;;;;;25.63;15.20;;;6.30;99.90;;;;;;5053628;28;20033;-62
2021/11/16 04:05:31;;;;;;;26.00;15.45;;;6.20;99.90;;;;;;5052920;28;20568;-62
2021/11/16 04:07:57;;;;;;;24.98;15.32;;;6.30;99.90;;;;;;5053839;28;20053;-62
2021/11/16 04:10:23;;;;;;;24.88;15.30;;;6.30;99.90;;;;;;5053482;28;20034;-62
2021/11/16 04:12:50;;;;;;;27.08;16.52;;;6.90;99.90;;;;;;5053748;28;20028;-62
2021/11/16 04:15:20;;;;;;;27.65;16.10;;;6.20;99.90;;;;;;5052627;28;20033;-61
2021/11/16 04:17:46;;;;;;;28.73;17.13;;;6.60;99.90;;;;;;5052668;28;20052;-63
2021/11/16 04:20:21;;;;;;;27.05;16.00;;;6.30;99.90;;;;;;5053247;28;20048;-63
2021/11/16 04:22:48;;;;;;;26.52;15.27;;;6.30;99.90;;;;;;5053564;28;20045;-62
2021/11/16 04:25:14;;;;;;;27.20;16.77;;;6.30;99.90;;;;;;5052634;28;20062;-60
2021/11/16 04:27:41;;;;;;;27.30;15.90;;;6.00;99.90;;;;;;5053299;28;20025;-61
2021/11/16 04:30:09;;;;;;;29.85;16.63;;;6.20;99.90;;;;;;5053186;28;20541;-62
2021/11/16 04:32:35;;;;;;;26.38;15.95;;;6.10;99.90;;;;;;5053150;28;20028;-63
2021/11/16 04:35:00;;;;;;;26.98;16.88;;;6.20;99.90;;;;;;5052523;28;20021;-63
2021/11/16 04:37:26;;;;;;;25.83;16.60;;;6.10;99.90;;;;;;5053164;28;20033;-62
2021/11/16 04:39:52;;;;;;;25.67;16.75;;;6.30;99.90;;;;;;5053066;28;20063;-61
2021/11/16 04:42:19;;;;;;;25.80;15.35;;;6.20;99.90;;;;;;5051842;28;20031;-61
2021/11/16 04:44:46;;;;;;;27.48;16.60;;;6.20;99.90;;;;;;5052538;28;20112;-63
2021/11/16 04:47:15;;;;;;;27.88;16.98;;;6.30;99.90;;;;;;5052916;28;20036;-62
2021/11/16 04:49:45;;;;;;;27.15;16.42;;;6.10;99.90;;;;;;5040720;28;20633;-68
2021/11/16 04:55:07;;;;;;;27.77;16.83;;;6.10;99.90;;;;;;5047806;28;20112;-66
2021/11/16 05:02:42;;;;;;;26.63;17.00;;;6.20;99.90;;;;;;5052652;28;20031;-67
2021/11/16 05:05:10;;;;;;;29.70;16.98;;;6.10;99.90;;;;;;5052352;28;20446;-68
2021/11/16 05:07:36;;;;;;;28.38;17.60;;;6.00;99.90;;;;;;5055660;28;20025;-68
2021/11/16 05:10:05;;;;;;;35.05;17.98;;;6.70;99.90;;;;;;5066331;28;20047;-67
2021/11/16 05:12:32;;;;;;;26.63;15.63;;;6.30;99.90;;;;;;5053822;28;20112;-68
2021/11/16 05:15:02;;;;;;;28.08;16.85;;;6.20;99.90;;;;;;5052234;28;20052;-68
2021/11/16 05:17:27;;;;;;;27.20;16.10;;;6.20;99.90;;;;;;5051434;28;20022;-67
2021/11/16 05:19:53;;;;;;;26.20;15.88;;;6.10;99.90;;;;;;5051910;28;20028;-67
2021/11/16 05:22:19;;;;;;;25.88;15.68;;;6.20;99.90;;;;;;5052315;28;20021;-67
2021/11/16 05:24:45;;;;;;;27.92;16.30;;;6.10;99.90;;;;;;5050626;28;20024;-68
2021/11/16 05:27:11;;;;;;;25.65;14.65;;;6.10;99.90;;;;;;5051531;28;20032;-67
2021/11/16 05:29:37;;;;;;;26.88;16.52;;;6.10;99.90;;;;;;5050811;28;20021;-68
2021/11/16 05:32:03;;;;;;;25.20;15.05;;;6.00;99.90;;;;;;5050705;28;20109;-65
2021/11/16 05:34:29;;;;;;;27.25;14.88;;;6.00;99.90;;;;;;5049548;28;20032;-65
2021/11/16 05:36:55;;;;;;;24.92;14.60;;;6.10;99.90;;;;;;5051382;28;20037;-65
2021/11/16 05:39:20;;;;;;;27.83;15.77;;;6.10;99.90;;;;;;5051262;28;20033;-65
2021/11/16 05:41:47;;;;;;;23.42;14.60;;;6.10;99.90;;;;;;5050789;28;20529;-65
2021/11/16 05:44:13;;;;;;;22.63;14.85;;;6.10;99.90;;;;;;5051266;28;20071;-65
2021/11/16 05:46:39;;;;;;;26.00;14.75;;;6.20;99.90;;;;;;5050291;28;20075;-64
2021/11/16 05:49:05;;;;;;;26.83;14.73;;;6.00;99.90;;;;;;5051227;28;20029;-65
2021/11/16 05:51:31;;;;;;;23.27;14.15;;;6.10;99.90;;;;;;5050561;28;20059;-75
2021/11/16 05:54:00;;;;;;;25.00;14.90;;;6.00;99.90;;;;;;5051805;28;20104;-74
2021/11/16 05:56:32;;;;;;;27.73;15.93;;;6.10;99.90;;;;;;5052671;28;20025;-74
2021/11/16 05:58:58;;;;;;;24.00;14.77;;;6.20;99.90;;;;;;5066602;28;20033;-68
2021/11/16 06:01:27;;;;;;;25.27;15.50;;;7.00;99.90;;;;;;5066441;28;20032;-65
2021/11/16 06:03:53;;;;;;;29.55;18.08;;;6.10;99.90;;;;;;5067652;28;20111;-67
2021/11/16 06:06:27;;;;;;;28.20;16.33;;;6.40;99.90;;;;;;5055215;28;20079;-65
2021/11/16 06:08:54;;;;;;;22.40;14.32;;;6.20;99.90;;;;;;5044806;28;20029;-65
2021/11/16 06:11:22;;;;;;;26.40;14.50;;;6.20;99.90;;;;;;5036967;28;20033;-65
2021/11/16 06:13:49;;;;;;;25.10;14.38;;;6.10;99.90;;;;;;5042473;28;20021;-68
2021/11/16 06:16:15;;;;;;;28.30;16.02;;;6.10;99.90;;;;;;5050572;28;20135;-66
2021/11/16 06:18:47;;;;;;;25.15;14.63;;;6.10;99.90;;;;;;5062406;22;20048;-71
2021/11/16 06:21:13;;;;;;;26.42;15.30;;;6.10;99.90;;;;;;5022712;28;20025;-69
2021/11/16 06:23:39;;;;;;;26.65;14.63;;;6.10;99.90;;;;;;5031905;28;20029;-71
2021/11/16 06:26:05;;;;;;;27.25;14.73;;;6.10;99.90;;;;;;5030835;28;20086;-71
2021/11/16 06:28:31;;;;;;;26.50;15.82;;;6.40;99.90;;;;;;5031369;28;20546;-70
2021/11/16 06:30:58;;;;;;;29.30;16.20;;;6.20;99.90;;;;;;5031071;28;20108;-71
2021/11/16 06:33:24;;;;;;;25.67;14.38;;;6.20;99.90;;;;;;5031037;28;20048;-71
2021/11/16 06:35:51;;;;;;;27.42;15.48;;;6.20;99.90;;;;;;5030856;28;20021;-72
2021/11/16 06:38:17;;;;;;;28.10;16.67;;;6.20;99.90;;;;;;5031685;28;20056;-71
2021/11/16 06:40:47;;;;;;;29.58;15.52;;;6.10;99.90;;;;;;5030213;28;20037;-69
2021/11/16 06:43:24;;;;;;;31.90;18.17;;;6.10;99.90;;;;;;5034353;28;20104;-68
2021/11/16 06:45:51;;;;;;;30.30;16.80;;;6.40;99.90;;;;;;5014773;28;20033;-70
2021/11/16 06:48:17;;;;;;;29.95;16.42;;;6.00;99.90;;;;;;5015211;28;20034;-69
2021/11/16 06:50:43;;;;;;;33.03;17.90;;;6.10;99.90;;;;;;5015343;28;20038;-69
2021/11/16 06:53:09;;;;;;;33.95;18.02;;;6.00;99.90;;;;;;5015394;28;20380;-69
2021/11/16 06:55:34;;;;;;;34.38;17.85;;;6.40;99.90;;;;;;5012275;28;20718;-70
2021/11/16 06:58:00;;;;;;;32.80;18.08;;;6.50;99.90;;;;;;4994931;28;20030;-70
2021/11/16 07:00:26;;;;;;;35.53;19.08;;;6.10;99.90;;;;;;4999695;28;20021;-70
2021/11/16 07:02:57;;;;;;;33.28;18.08;;;6.20;99.90;;;;;;4995847;28;20018;-71
2021/11/16 07:05:24;;;;;;;33.43;18.77;;;6.10;99.90;;;;;;4994629;28;20106;-70
2021/11/16 07:07:50;;;;;;;34.90;19.13;;;6.10;99.90;;;;;;4995303;28;20025;-69
2021/11/16 07:10:19;;;;;;;34.72;19.15;;;6.10;99.90;;;;;;5005397;28;20686;-72
2021/11/16 07:12:46;;;;;;;32.97;18.65;;;6.10;99.90;;;;;;5015165;28;20080;-70
2021/11/16 07:15:13;;;;;;;36.25;19.30;;;6.40;99.90;;;;;;5014693;28;20022;-70
2021/11/16 07:17:39;;;;;;;31.23;18.23;;;6.10;99.90;;;;;;5014601;28;20037;-71
2021/11/16 07:20:09;;;;;;;37.17;18.90;;;6.40;99.90;;;;;;5025786;28;20033;-67
2021/11/16 07:22:37;;;;;;;34.80;17.83;;;6.10;99.90;;;;;;5019919;28;20096;-65
2021/11/16 07:25:08;;;;;;;37.20;19.23;;;6.20;99.90;;;;;;5013768;28;20034;-62
2021/11/16 07:27:47;;;;;;;35.20;18.13;;;6.20;99.90;;;;;;5014781;28;20080;-67
2021/11/16 07:30:15;;;;;;;31.25;17.50;;;6.20;99.90;;;;;;5014583;28;20391;-65
2021/11/16 07:32:43;;;;;;;32.35;18.15;;;6.20;99.90;;;;;;5014575;28;20038;-67
2021/11/16 07:35:09;;;;;;;34.00;17.55;;;6.20;99.90;;;;;;5013898;28;20101;-66
2021/11/16 07:37:38;;;;;;;32.28;17.80;;;5.90;99.90;;;;;;5013855;28;20403;-67
2021/11/16 07:40:12;;;;;;;32.25;17.30;;;6.00;99.90;;;;;;5021147;28;20014;-66
2021/11/16 07:43:02;;;;;;;31.10;17.33;;;6.40;99.90;;;;;;5030608;28;20029;-66
2021/11/16 07:45:31;;;;;;;34.13;17.63;;;6.10;99.90;;;;;;5033726;28;20026;-66
2021/11/16 07:48:00;;;;;;;39.22;19.42;;;6.00;99.90;;;;;;5034045;28;20021;-66
2021/11/16 07:50:31;;;;;;;32.92;18.15;;;6.40;99.90;;;;;;5033682;28;20112;-65
2021/11/16 07:53:09;;;;;;;50.15;24.17;;;6.10;99.90;;;;;;5033703;28;20344;-66
2021/11/16 07:55:36;;;;;;;34.35;17.90;;;6.20;99.90;;;;;;5033141;28;20038;-67
2021/11/16 07:58:06;;;;;;;33.97;17.80;;;6.60;99.90;;;;;;5033872;28;20021;-66
2021/11/16 08:00:34;;;;;;;34.67;18.23;;;6.30;99.90;;;;;;5033696;28;20175;-66
2021/11/16 08:03:19;;;;;;;31.20;17.08;;;6.40;99.90;;;;;;5034042;28;20024;-66
2021/11/16 08:08:24;;;;;;;36.58;18.90;;;6.40;99.90;;;;;;5032607;28;20557;-66
2021/11/16 08:11:00;;;;;;;40.60;21.35;;;6.40;99.90;;;;;;5014037;28;20030;-65
2021/11/16 08:13:29;;;;;;;39.15;18.85;;;6.40;99.90;;;;;;5014339;28;20026;-66
2021/11/16 08:16:09;;;;;;;34.60;18.40;;;6.90;99.90;;;;;;5013061;28;20061;-65
2021/11/16 08:18:47;;;;;;;36.88;19.15;;;6.30;99.90;;;;;;4994986;28;20031;-65
2021/11/16 08:21:15;;;;;;;43.88;24.92;;;6.20;99.90;;;;;;4994057;28;20428;-67
2021/11/16 08:24:06;;;;;;;44.88;26.13;;;6.10;99.90;;;;;;4994472;28;20037;-66
2021/11/16 08:26:35;;;;;;;38.42;17.33;;;6.30;99.90;;;;;;4993474;28;20026;-66
2021/11/16 08:29:01;;;;;;;40.28;18.88;;;6.50;99.90;;;;;;4994161;28;20037;-66
2021/11/16 08:31:36;;;;;;;37.70;19.35;;;6.40;99.90;;;;;;4994052;28;20037;-65
2021/11/16 08:34:03;;;;;;;36.70;18.83;;;7.00;99.90;;;;;;4994095;28;20076;-66
2021/11/16 08:36:31;;;;;;;34.42;17.20;;;6.40;99.90;;;;;;4993343;28;20096;-67
2021/11/16 08:38:58;;;;;;;37.13;20.40;;;6.50;99.90;;;;;;4982540;28;20369;-67
2021/11/16 08:41:30;;;;;;;23.60;13.13;;;6.90;99.90;;;;;;5013710;28;20477;-67
2021/11/16 08:44:16;;;;;;;32.65;15.88;;;6.70;99.90;;;;;;5013818;28;20530;-68
2021/11/16 08:46:44;;;;;;;28.58;14.02;;;6.50;99.90;;;;;;5013751;28;20033;-63
2021/11/16 08:49:30;;;;;;;32.30;15.77;;;6.60;99.90;;;;;;5013722;28;20026;-66
2021/11/16 08:51:59;;;;;;;26.20;13.55;;;6.20;99.90;;;;;;5014110;28;20361;-66
2021/11/16 08:54:30;;;;;;;29.13;15.63;;;6.40;99.90;;;;;;5012495;28;20490;-66
2021/11/16 08:56:56;;;;;;;34.13;17.60;;;6.30;99.90;;;;;;5013047;28;20387;-66
2021/11/16 08:59:23;;;;;;;33.58;13.07;;;6.70;99.90;;;;;;5013575;28;20022;-66
2021/11/16 09:01:57;;;;;;;27.50;13.73;;;6.60;99.90;;;;;;5013461;28;20026;-64
2021/11/16 09:04:25;;;;;;;31.58;15.25;;;6.50;99.90;;;;;;5012402;28;20072;-65
2021/11/16 09:06:52;;;;;;;37.45;23.95;;;6.50;99.90;;;;;;5013173;28;20096;-67
2021/11/16 09:09:18;;;;;;;38.58;22.85;;;6.40;99.90;;;;;;5022486;28;20037;-64
2021/11/16 09:12:15;;;;;;;26.55;15.25;;;6.50;99.90;;;;;;5033148;28;20044;-65
2021/11/16 09:14:55;;;;;;;44.97;24.75;;;6.40;99.90;;;;;;5024024;28;20064;-65
2021/11/16 09:17:21;;;;;;;35.65;19.50;;;6.50;99.90;;;;;;5032844;28;20028;-63
2021/11/16 09:19:46;;;;;;;33.92;16.02;;;6.60;99.90;;;;;;5032454;28;20033;-66
2021/11/16 09:22:17;;;;;;;37.72;19.88;;;6.50;99.90;;;;;;5032550;28;20057;-68
2021/11/16 09:24:45;;;;;;;48.17;28.42;;;7.40;99.90;;;;;;5013593;28;20033;-67
2021/11/16 09:27:23;;;;;;;41.28;23.52;;;6.60;99.90;;;;;;5031757;28;20031;-69
2021/11/16 09:29:50;;;;;;;30.75;14.60;;;6.60;99.90;;;;;;5014604;28;20026;-69
2021/11/16 09:32:16;;;;;;;27.20;14.23;;;6.50;99.90;;;;;;5032124;28;20041;-68
2021/11/16 09:34:50;;;;;;;28.98;14.27;;;6.60;99.90;;;;;;5031970;28;20023;-68
2021/11/16 09:37:22;;;;;;;30.40;16.15;;;6.50;99.90;;;;;;5033551;28;20021;-68
2021/11/16 09:39:49;;;;;;;;;;;6.50;99.90;;;;;;5020264;28;20034;-66
2021/11/16 09:42:22;;;;;;;25.38;12.70;;;6.50;99.90;;;;;;5025552;28;19969;-67
2021/11/16 09:44:49;;;;;;;;;;;6.70;99.90;;;;;;5026553;28;20026;-68
2021/11/16 09:47:25;;;;;;;25.50;11.95;;;7.30;99.90;;;;;;5021995;28;19956;-67
2021/11/16 09:49:51;;;;;;;23.73;12.60;;;6.70;99.90;;;;;;5014538;28;20022;-68
2021/11/16 09:52:31;;;;;;;29.33;13.88;;;6.80;99.90;;;;;;5016201;28;20033;-69
2021/11/16 09:55:06;;;;;;;23.42;12.20;;;6.60;99.90;;;;;;5002457;28;20555;-68
2021/11/16 09:57:39;;;;;;;28.10;13.77;;;6.60;99.90;;;;;;5017364;28;20573;-68
2021/11/16 10:00:12;;;;;;;33.05;12.45;;;6.70;99.90;;;;;;5018523;28;20058;-69
2021/11/16 10:02:41;;;;;;;25.13;11.85;;;6.60;99.90;;;;;;5020243;28;20032;-68
2021/11/16 10:05:19;;;;;;;22.17;11.85;;;6.70;99.90;;;;;;5020615;28;20114;-69
2021/11/16 10:07:49;;;;;;;19.02;11.25;;;6.60;99.90;;;;;;5020551;28;20038;-69
2021/11/16 10:10:17;;;;;;;23.30;11.05;;;6.60;99.90;;;;;;5018906;28;20033;-70
2021/11/16 10:12:51;;;;;;;21.45;11.35;;;6.50;99.90;;;;;;5019950;28;20168;-68
2021/11/16 10:15:19;;;;;;;24.58;12.57;;;6.60;99.90;;;;;;5019826;28;20056;-69
2021/11/16 10:17:47;;;;;;;27.10;13.50;;;6.60;99.90;;;;;;5021142;28;20387;-71
2021/11/16 10:20:16;;;;;;;25.40;12.48;;;6.90;99.90;;;;;;5008564;28;20073;-68
2021/11/16 10:22:46;;;;;;;26.15;13.00;;;6.50;99.90;;;;;;5027647;28;20025;-69
2021/11/16 10:25:18;;;;;;;22.20;10.93;;;4.10;99.90;;;;;;5023121;28;20565;-67
2021/11/16 10:27:46;;;;;;;22.65;11.75;;;6.70;99.90;;;;;;5007709;28;20392;-67
2021/11/16 10:30:13;;;;;;;22.42;11.18;;;6.80;99.90;;;;;;5023841;28;20061;-69
2021/11/16 10:33:04;;;;;;;20.45;11.38;;;6.70;99.90;;;;;;5025675;28;20049;-68
2021/11/16 10:35:29;;;;;;;103.88;44.72;;;6.70;99.90;;;;;;5007177;28;20435;-70
2021/11/16 10:37:57;;;;;;;39.63;18.98;;;7.00;99.90;;;;;;5024090;28;20030;-68
2021/11/16 10:40:26;;;;;;;14.60;7.95;;;7.00;99.90;;;;;;5022567;28;20034;-68
2021/11/16 10:42:56;;;;;;;15.63;7.90;;;6.80;99.90;;;;;;5019921;28;20364;-69
2021/11/16 10:45:26;;;;;;;13.35;8.05;;;6.70;99.90;;;;;;5020471;28;20037;-68
2021/11/16 10:47:57;;;;;;;16.92;8.90;;;6.90;99.90;;;;;;5013267;28;20030;-70
2021/11/16 10:50:28;;;;;;;35.10;17.88;;;6.90;99.90;;;;;;5012266;28;20092;-70
2021/11/16 10:53:26;;;;;;;17.48;9.73;;;6.90;99.90;;;;;;5012287;28;20022;-67
2021/11/16 10:55:53;;;;;;;15.63;7.38;;;6.90;99.90;;;;;;5011053;28;20393;-67
2021/11/16 10:58:21;;;;;;;16.15;8.27;;;7.00;99.90;;;;;;5011686;28;20041;-68
2021/11/16 11:01:08;;;;;;;12.95;8.07;;;6.60;99.90;;;;;;5011659;28;20025;-74
2021/11/16 11:03:35;;;;;;;13.95;7.60;;;7.10;99.90;;;;;;5011944;28;20025;-74
2021/11/16 11:06:09;;;;;;;15.25;8.15;;;7.20;99.90;;;;;;5011842;28;20025;-74
2021/11/16 11:08:44;;;;;;;14.98;8.60;;;7.20;99.90;;;;;;5011778;28;20069;-66
2021/11/16 11:11:16;;;;;;;14.27;8.15;;;7.10;99.90;;;;;;5015415;28;20057;-73
2021/11/16 11:13:51;;;;;;;16.50;8.88;;;7.00;99.90;;;;;;5018436;28;20022;-73
2021/11/16 11:16:17;;;;;;;11.60;7.05;;;7.10;99.90;;;;;;4993117;28;20086;-69
2021/11/16 11:18:48;;;;;;;19.38;7.18;;;7.40;99.90;;;;;;4993565;28;20112;-68
2021/11/16 11:21:50;;;;;;;12.00;6.80;;;7.20;99.90;;;;;;5011631;28;20018;-69
2021/11/16 11:24:23;;;;;;;11.23;6.95;;;7.40;99.90;;;;;;4998184;28;20037;-68
2021/11/16 11:26:59;;;;;;;10.20;6.47;;;8.00;99.90;;;;;;5011692;28;20083;-68
2021/11/16 11:29:46;;;;;;;10.38;6.40;;;7.30;99.90;;;;;;5014577;28;20022;-68
2021/11/16 11:32:42;;;;;;;10.27;6.40;;;7.30;99.90;;;;;;5015400;28;20392;-69
2021/11/16 11:35:09;;;;;;;11.63;6.30;;;7.30;99.90;;;;;;4998168;28;20070;-68
2021/11/16 11:37:43;;;;;;;11.23;7.40;;;7.20;99.90;;;;;;5015331;28;20362;-71
2021/11/16 11:40:13;;;;;;;12.30;6.53;;;7.30;99.90;;;;;;5016685;28;20026;-74
2021/11/16 11:42:47;;;;;;;56.97;29.33;;;7.10;99.90;;;;;;5017766;28;20396;-73
2021/11/16 11:45:32;;;;;;;11.63;7.20;;;7.40;99.90;;;;;;5016857;28;20026;-74
2021/11/16 11:48:00;;;;;;;11.18;6.65;;;7.30;99.90;;;;;;5016706;28;20048;-75
2021/11/16 11:50:35;;;;;;;10.82;6.68;;;7.30;99.90;;;;;;5017941;28;20065;-73
2021/11/16 11:53:04;;;;;;;15.07;6.72;;;7.20;99.90;;;;;;5017354;28;20026;-74
2021/11/16 11:55:32;;;;;;;12.05;6.68;;;7.30;99.90;;;;;;5017637;28;20053;-73
2021/11/16 11:58:01;;;;;;;11.80;7.22;;;7.20;99.90;;;;;;5016956;28;20036;-75
2021/11/16 12:00:28;;;;;;;11.48;7.18;;;7.20;99.90;;;;;;5015138;28;20028;-67
2021/11/16 12:02:55;;;;;;;8.43;6.13;;;7.10;99.90;;;;;;5015196;28;20022;-69
2021/11/16 12:05:23;;;;;;;9.82;6.50;;;7.00;99.90;;;;;;5014064;28;20024;-68
2021/11/16 12:07:52;;;;;;;9.60;6.22;;;7.20;99.90;;;;;;5014259;28;20384;-68
2021/11/16 12:10:18;;;;;;;9.63;6.63;;;7.10;99.90;;;;;;4996059;28;20041;-67
2021/11/16 12:12:44;;;;;;;10.07;5.90;;;7.00;99.90;;;;;;5014075;28;20041;-69
2021/11/16 12:15:16;;;;;;;8.63;6.10;;;7.30;99.90;;;;;;5013454;28;20026;-67
2021/11/16 12:17:51;;;;;;;9.95;6.20;;;7.00;99.90;;;;;;5014105;28;20180;-68
2021/11/16 12:20:38;;;;;;;8.63;5.75;;;7.20;99.90;;;;;;5013779;28;20413;-68
2021/11/16 12:23:06;;;;;;;8.90;6.05;;;7.30;99.90;;;;;;5056306;22;20128;-65
2021/11/16 12:25:32;;;;;;;11.15;6.45;;;7.30;99.90;;;;;;5037992;28;20033;-65
2021/11/16 12:27:59;;;;;;;11.10;6.40;;;7.40;99.90;;;;;;5046931;28;20655;-65
2021/11/16 12:30:47;;;;;;;11.07;6.40;;;7.20;99.90;;;;;;5053243;28;20017;-65
2021/11/16 12:33:33;;;;;;;9.57;6.18;;;7.20;99.90;;;;;;5052987;28;20037;-65
2021/11/16 12:35:58;;;;;;;12.18;6.40;;;7.30;99.90;;;;;;5034686;28;20116;-64
2021/11/16 12:38:37;;;;;;;9.88;6.18;;;7.30;99.90;;;;;;5052395;28;20104;-65
2021/11/16 12:41:27;;;;;;;13.05;6.70;;;7.40;99.90;;;;;;5052886;28;20057;-65
2021/11/16 12:43:55;;;;;;;11.07;6.75;;;7.40;99.90;;;;;;5053213;28;20025;-65
2021/11/16 12:46:22;;;;;;;9.18;6.82;;;7.20;99.90;;;;;;5052652;28;20021;-66
2021/11/16 12:48:55;;;;;;;10.68;6.80;;;7.30;99.90;;;;;;5053355;28;20398;-65
2021/11/16 12:51:29;;;;;;;16.83;6.60;;;7.30;99.90;;;;;;5035203;28;20021;-65
2021/11/16 12:53:58;;;;;;;14.00;7.57;;;7.20;99.90;;;;;;5035077;28;20029;-64
2021/11/16 12:56:45;;;;;;;8.63;6.60;;;7.30;99.90;;;;;;5052513;28;20021;-64
2021/11/16 12:59:23;;;;;;;10.57;6.43;;;7.30;99.90;;;;;;5051770;28;20029;-65
2021/11/16 13:01:56;;;;;;;10.13;6.45;;;7.20;99.90;;;;;;5053132;28;20025;-66